EDAC/ADC METAR and TAF weather

Enter ICAO airport designator
Station Type Date Time Source
EDAC METAR 2019/04/19 22:20 UTC NOAA

EDAC 192220Z AUTO 15003KT 9999 // NCD 07/03 Q1030


Station Type Date Time Source
EDAC Decoded METAR 2019/04/19 22:20 UTC NOAA

Altenburg Nobitz, Germany (EDAC) 50-58N 012-30E
Apr 19, 2019 - 06:20 PM EDT / 2019.04.19 2220 UTC
Wind: from the SSE (150 degrees) at 3 MPH (3 KT):0
Visibility: greater than 7 mile(s):0
Temperature: 44 F (7 C)
Dew Point: 37 F (3 C)
Relative Humidity: 75%
Pressure (altimeter): 30.42 in. Hg (1030 hPa)
ob: EDAC 192220Z AUTO 15003KT 9999 // NCD 07/03 Q1030
cycle: 22

Station Type Date Time Source
EDAC TAF UTC NOAA

Error!

Example: see airport list